createdAt,value
2017-09-27T00:00:46.049Z,0
2017-09-27T00:01:54.880Z,0
2017-09-27T00:03:04.045Z,0
2017-09-27T00:04:12.879Z,0
2017-09-27T00:05:21.715Z,0
2017-09-27T00:06:30.549Z,0
2017-09-27T00:07:39.383Z,0
2017-09-27T00:08:48.218Z,0
2017-09-27T00:09:57.056Z,0
2017-09-27T00:11:05.894Z,0
2017-09-27T00:12:14.731Z,0
2017-09-27T00:13:23.567Z,0
2017-09-27T00:14:32.404Z,0
2017-09-27T00:15:41.242Z,0
2017-09-27T00:16:50.073Z,0
2017-09-27T00:17:58.907Z,0
2017-09-27T00:19:07.740Z,0
2017-09-27T00:20:16.575Z,0
2017-09-27T00:21:25.410Z,0
2017-09-27T00:22:34.244Z,0
2017-09-27T00:23:43.077Z,0
2017-09-27T00:24:51.912Z,0
2017-09-27T00:26:00.749Z,0
2017-09-27T00:27:09.583Z,0
2017-09-27T00:28:18.412Z,0
2017-09-27T00:29:27.245Z,0
2017-09-27T00:30:36.083Z,0
2017-09-27T00:31:44.914Z,0
2017-09-27T00:32:53.752Z,0
2017-09-27T00:34:02.587Z,0
2017-09-27T00:35:11.422Z,0
2017-09-27T00:36:20.249Z,0
2017-09-27T00:37:29.085Z,0
2017-09-27T00:38:37.923Z,0
2017-09-27T00:39:46.758Z,0
2017-09-27T00:40:55.912Z,0
2017-09-27T00:42:04.754Z,0
2017-09-27T00:43:13.579Z,0
2017-09-27T00:44:22.412Z,0
2017-09-27T00:45:31.244Z,0
2017-09-27T00:46:40.079Z,0
2017-09-27T00:47:49.239Z,0
2017-09-27T00:48:58.073Z,0
2017-09-27T00:50:06.905Z,0
2017-09-27T00:51:15.736Z,0
2017-09-27T00:52:24.575Z,0
2017-09-27T00:53:33.406Z,0
2017-09-27T00:54:42.238Z,0
2017-09-27T00:55:51.073Z,0
2017-09-27T00:56:59.905Z,0
2017-09-27T00:58:08.748Z,0
2017-09-27T00:59:17.902Z,0
2017-09-27T01:00:26.735Z,0
2017-09-27T01:01:35.567Z,0
2017-09-27T01:02:44.723Z,0
2017-09-27T01:03:53.555Z,0
2017-09-27T01:05:02.392Z,0
2017-09-27T01:06:11.230Z,0
2017-09-27T01:07:20.058Z,0
2017-09-27T01:08:28.892Z,0
2017-09-27T01:09:37.727Z,0
2017-09-27T01:10:46.563Z,0
2017-09-27T01:11:55.397Z,0
2017-09-27T01:13:04.228Z,0
2017-09-27T01:14:13.070Z,0
2017-09-27T01:15:21.899Z,0
2017-09-27T01:16:30.736Z,0
2017-09-27T01:17:39.572Z,0
2017-09-27T01:18:48.404Z,0
2017-09-27T01:19:57.236Z,0
2017-09-27T01:21:06.395Z,0
2017-09-27T01:22:15.231Z,0
2017-09-27T01:23:24.065Z,0
2017-09-27T01:24:32.900Z,0
2017-09-27T01:25:42.057Z,0
2017-09-27T01:26:50.891Z,0
2017-09-27T01:28:00.057Z,0
2017-09-27T01:29:08.889Z,0
2017-09-27T01:30:17.729Z,0
2017-09-27T01:31:26.559Z,0
2017-09-27T01:32:35.393Z,0
2017-09-27T01:33:44.225Z,0
2017-09-27T01:34:53.061Z,0
2017-09-27T01:36:01.899Z,0
2017-09-27T01:37:11.063Z,0
2017-09-27T01:38:19.890Z,0
2017-09-27T01:39:28.726Z,0
2017-09-27T01:40:37.554Z,0
2017-09-27T01:41:46.391Z,0
2017-09-27T01:42:55.233Z,0
2017-09-27T01:44:04.068Z,0
2017-09-27T01:45:12.902Z,0
2017-09-27T01:46:21.738Z,0
2017-09-27T01:47:30.577Z,0
2017-09-27T01:48:39.411Z,0
2017-09-27T01:49:48.245Z,0
2017-09-27T01:50:57.075Z,0
2017-09-27T01:52:05.909Z,0
2017-09-27T01:53:15.071Z,0
2017-09-27T01:54:23.903Z,0
2017-09-27T01:55:32.737Z,0
2017-09-27T01:56:41.570Z,0
2017-09-27T01:57:50.431Z,0
2017-09-27T01:58:59.233Z,0
2017-09-27T02:00:08.071Z,0
2017-09-27T02:01:16.904Z,0
2017-09-27T02:02:25.734Z,0
2017-09-27T02:03:34.570Z,0
2017-09-27T02:04:43.403Z,0
2017-09-27T02:05:52.234Z,0
2017-09-27T02:07:01.074Z,0
2017-09-27T02:08:09.906Z,0
2017-09-27T02:09:18.740Z,0
2017-09-27T02:10:27.573Z,0
2017-09-27T02:11:36.409Z,0
2017-09-27T02:12:45.243Z,0
2017-09-27T02:13:54.079Z,0
2017-09-27T02:15:02.912Z,0
2017-09-27T02:16:11.748Z,0
2017-09-27T02:17:20.916Z,0
2017-09-27T02:18:29.749Z,0
2017-09-27T02:19:38.582Z,0
2017-09-27T02:20:47.418Z,0
2017-09-27T02:21:56.252Z,0
2017-09-27T02:23:05.087Z,0
2017-09-27T02:24:13.921Z,0
2017-09-27T02:25:22.760Z,0
2017-09-27T02:26:31.588Z,0
2017-09-27T02:27:40.424Z,0
2017-09-27T02:28:49.256Z,0
2017-09-27T02:29:58.415Z,0
2017-09-27T02:31:07.244Z,0
2017-09-27T02:32:16.079Z,0
2017-09-27T02:33:24.910Z,0
2017-09-27T02:34:33.744Z,0
2017-09-27T02:35:42.576Z,0
2017-09-27T02:36:51.412Z,0
2017-09-27T02:38:00.570Z,0
2017-09-27T02:39:09.405Z,0
2017-09-27T02:40:18.236Z,0
2017-09-27T02:41:27.069Z,0
2017-09-27T02:42:35.909Z,0
2017-09-27T02:43:44.740Z,0
2017-09-27T02:44:53.574Z,0
2017-09-27T02:46:02.409Z,0
2017-09-27T02:47:11.242Z,0
2017-09-27T02:48:20.076Z,0
2017-09-27T02:49:28.911Z,0
2017-09-27T02:50:37.746Z,0
2017-09-27T02:51:46.578Z,0
2017-09-27T02:52:55.412Z,0
2017-09-27T02:54:04.245Z,0
2017-09-27T02:55:13.083Z,0
2017-09-27T02:56:21.920Z,0
2017-09-27T02:57:30.749Z,0
2017-09-27T02:58:39.581Z,0
2017-09-27T02:59:48.417Z,0
2017-09-27T03:00:57.249Z,0
2017-09-27T03:02:06.086Z,0
2017-09-27T03:03:14.923Z,0
2017-09-27T03:04:23.757Z,0
2017-09-27T03:05:32.589Z,0
2017-09-27T03:06:41.427Z,0
2017-09-27T03:07:50.263Z,0
2017-09-27T03:08:59.095Z,0
2017-09-27T03:10:07.926Z,0
2017-09-27T03:11:16.759Z,0
2017-09-27T03:12:25.643Z,0
2017-09-27T03:13:34.480Z,0
2017-09-27T03:14:43.318Z,0
2017-09-27T03:15:52.151Z,0
2017-09-27T03:17:00.986Z,0
2017-09-27T03:18:09.812Z,0
2017-09-27T03:19:18.644Z,0
2017-09-27T03:20:27.484Z,0
2017-09-27T03:21:36.315Z,0
2017-09-27T03:22:45.146Z,0
2017-09-27T03:23:53.980Z,0
2017-09-27T03:25:02.816Z,0
2017-09-27T03:26:11.649Z,0
2017-09-27T03:27:20.484Z,0
2017-09-27T03:28:29.319Z,0
2017-09-27T03:29:38.148Z,0
2017-09-27T03:30:46.984Z,0
2017-09-27T03:31:55.818Z,0
2017-09-27T03:33:04.657Z,0
2017-09-27T03:34:13.492Z,0
2017-09-27T03:35:22.657Z,0
2017-09-27T03:36:31.485Z,0
2017-09-27T03:37:40.323Z,0
2017-09-27T03:38:49.152Z,0
2017-09-27T03:39:57.986Z,0
2017-09-27T03:41:06.820Z,0
2017-09-27T03:42:15.657Z,0
2017-09-27T03:43:24.487Z,0
2017-09-27T03:44:33.315Z,0
2017-09-27T03:45:42.149Z,0
2017-09-27T03:46:50.983Z,0
2017-09-27T03:47:59.819Z,0
2017-09-27T03:49:08.980Z,0
2017-09-27T03:50:17.811Z,0
2017-09-27T03:51:26.646Z,0
2017-09-27T03:52:35.478Z,0
2017-09-27T03:53:44.635Z,0
2017-09-27T03:54:53.467Z,0
2017-09-27T03:56:02.629Z,0
2017-09-27T03:57:11.785Z,0
2017-09-27T03:58:20.949Z,0
2017-09-27T03:59:29.785Z,0
2017-09-27T04:00:38.615Z,0
2017-09-27T04:01:47.451Z,0
2017-09-27T04:02:56.286Z,0
2017-09-27T04:04:05.125Z,0
2017-09-27T04:05:14.608Z,0
2017-09-27T04:06:23.442Z,0
2017-09-27T04:07:32.270Z,0
2017-09-27T04:08:41.104Z,0
2017-09-27T04:09:49.940Z,0
2017-09-27T04:10:58.775Z,0
2017-09-27T04:12:07.604Z,0
2017-09-27T04:13:16.438Z,0
2017-09-27T04:14:25.267Z,0
2017-09-27T04:15:34.117Z,0
2017-09-27T04:16:42.942Z,0
2017-09-27T04:17:51.773Z,0
2017-09-27T04:19:00.603Z,0
2017-09-27T04:20:09.442Z,0
2017-09-27T04:21:18.277Z,0
2017-09-27T04:22:27.114Z,0
2017-09-27T04:23:35.945Z,0
2017-09-27T04:24:44.776Z,0
2017-09-27T04:25:53.927Z,0
2017-09-27T04:27:02.766Z,0
2017-09-27T04:28:11.604Z,0
2017-09-27T04:29:20.439Z,0
2017-09-27T04:30:29.273Z,0
2017-09-27T04:31:38.107Z,0
2017-09-27T04:32:46.947Z,0
2017-09-27T04:33:55.775Z,0
2017-09-27T04:35:04.615Z,0
2017-09-27T04:36:13.446Z,0
2017-09-27T04:37:22.284Z,0
2017-09-27T04:38:31.115Z,0
2017-09-27T04:39:39.943Z,0
2017-09-27T04:40:48.781Z,0
2017-09-27T04:41:57.615Z,0
2017-09-27T04:43:06.449Z,0
2017-09-27T04:44:15.285Z,0
2017-09-27T04:45:24.116Z,0
2017-09-27T04:46:32.945Z,0
2017-09-27T04:47:41.785Z,4
2017-09-27T04:48:50.626Z,0
2017-09-27T04:49:59.457Z,4
2017-09-27T04:51:08.620Z,4
2017-09-27T04:52:17.449Z,4
2017-09-27T04:53:26.286Z,8
2017-09-27T04:54:35.120Z,4
2017-09-27T04:55:43.957Z,8
2017-09-27T04:56:53.113Z,8
2017-09-27T04:58:01.947Z,8
2017-09-27T04:59:10.781Z,12
2017-09-27T05:00:19.617Z,12
2017-09-27T05:01:28.450Z,16
2017-09-27T05:02:37.283Z,16
2017-09-27T05:03:46.118Z,24
2017-09-27T05:04:54.955Z,24
2017-09-27T05:06:03.793Z,24
2017-09-27T05:07:12.624Z,28
2017-09-27T05:08:21.457Z,32
2017-09-27T05:09:30.295Z,36
2017-09-27T05:10:39.126Z,44
2017-09-27T05:11:47.956Z,44
2017-09-27T05:12:56.791Z,44
2017-09-27T05:14:05.625Z,48
2017-09-27T05:15:14.458Z,48
2017-09-27T05:16:23.296Z,52
2017-09-27T05:17:32.136Z,52
2017-09-27T05:18:40.963Z,56
2017-09-27T05:19:49.800Z,56
2017-09-27T05:20:58.627Z,56
2017-09-27T05:22:07.465Z,64
2017-09-27T05:23:16.308Z,68
2017-09-27T05:24:25.788Z,72
2017-09-27T05:25:34.618Z,68
2017-09-27T05:26:43.453Z,72
2017-09-27T05:27:52.287Z,76
2017-09-27T05:29:01.125Z,76
2017-09-27T05:30:09.960Z,80
2017-09-27T05:31:18.792Z,80
2017-09-27T05:32:27.630Z,88
2017-09-27T05:33:36.459Z,96
2017-09-27T05:34:45.287Z,96
2017-09-27T05:35:54.124Z,108
2017-09-27T05:37:02.956Z,104
2017-09-27T05:38:11.796Z,124
2017-09-27T05:39:20.630Z,124
2017-09-27T05:40:29.464Z,140
2017-09-27T05:41:38.293Z,156
2017-09-27T05:42:47.132Z,164
2017-09-27T05:43:55.962Z,184
2017-09-27T05:45:04.803Z,200
2017-09-27T05:46:13.637Z,220
2017-09-27T05:47:22.471Z,204
2017-09-27T05:48:31.309Z,216
2017-09-27T05:49:40.145Z,236
2017-09-27T05:50:48.977Z,220
2017-09-27T05:51:57.812Z,244
2017-09-27T05:53:06.647Z,272
2017-09-27T05:54:15.480Z,236
2017-09-27T05:55:24.315Z,228
2017-09-27T05:56:33.151Z,260
2017-09-27T05:57:41.981Z,240
2017-09-27T05:58:50.817Z,244
2017-09-27T05:59:59.653Z,256
2017-09-27T06:01:08.486Z,252
2017-09-27T06:02:17.316Z,248
2017-09-27T06:03:26.150Z,272
2017-09-27T06:04:34.984Z,248
2017-09-27T06:05:44.148Z,228
2017-09-27T06:06:52.984Z,244
2017-09-27T06:08:01.819Z,260
2017-09-27T06:09:10.651Z,280
2017-09-27T06:10:19.813Z,240
2017-09-27T06:11:28.651Z,252
2017-09-27T06:12:37.480Z,256
2017-09-27T06:13:46.642Z,248
2017-09-27T06:14:55.474Z,248
2017-09-27T06:16:04.306Z,236
2017-09-27T06:17:13.144Z,228
2017-09-27T06:18:21.981Z,236
2017-09-27T06:19:30.810Z,232
2017-09-27T06:20:39.652Z,224
2017-09-27T06:21:48.491Z,220
2017-09-27T06:22:57.318Z,216
2017-09-27T06:24:06.157Z,240
2017-09-27T06:25:14.991Z,280
2017-09-27T06:26:23.817Z,292
2017-09-27T06:27:32.657Z,300
2017-09-27T06:28:41.485Z,312
2017-09-27T06:29:50.320Z,416
2017-09-27T06:30:59.154Z,360
2017-09-27T06:32:07.989Z,356
2017-09-27T06:33:16.824Z,340
2017-09-27T06:34:25.657Z,332
2017-09-27T06:35:34.491Z,336
2017-09-27T06:36:43.320Z,332
2017-09-27T06:37:52.810Z,320
2017-09-27T06:39:01.646Z,344
2017-09-27T06:40:10.483Z,364
2017-09-27T06:41:19.314Z,360
2017-09-27T06:42:28.150Z,392
2017-09-27T06:43:36.981Z,408
2017-09-27T06:44:45.818Z,424
2017-09-27T06:45:54.653Z,432
2017-09-27T06:47:03.485Z,500
2017-09-27T06:48:12.315Z,452
2017-09-27T06:49:21.149Z,496
2017-09-27T06:50:29.984Z,492
2017-09-27T06:51:38.822Z,516
2017-09-27T06:52:47.654Z,524
2017-09-27T06:53:56.487Z,548
2017-09-27T06:55:05.319Z,576
2017-09-27T06:56:14.482Z,512
2017-09-27T06:57:23.314Z,516
2017-09-27T06:58:32.153Z,548
2017-09-27T06:59:40.986Z,532
2017-09-27T07:00:49.821Z,664
2017-09-27T07:01:58.653Z,652
2017-09-27T07:03:07.493Z,580
2017-09-27T07:04:16.327Z,592
2017-09-27T07:05:25.160Z,700
2017-09-27T07:06:34.000Z,636
2017-09-27T07:07:42.833Z,556
2017-09-27T07:08:51.668Z,596
2017-09-27T07:10:00.504Z,544
2017-09-27T07:11:09.337Z,528
2017-09-27T07:12:18.172Z,500
2017-09-27T07:13:27.005Z,480
2017-09-27T07:14:35.839Z,468
2017-09-27T07:15:44.669Z,444
2017-09-27T07:16:53.505Z,456
2017-09-27T07:18:02.336Z,464
2017-09-27T07:19:11.171Z,504
2017-09-27T07:20:20.012Z,456
2017-09-27T07:21:28.842Z,524
2017-09-27T07:22:37.677Z,548
2017-09-27T07:23:46.508Z,552
2017-09-27T07:24:55.349Z,580
2017-09-27T07:26:04.177Z,564
2017-09-27T07:27:13.017Z,552
2017-09-27T07:28:21.852Z,676
2017-09-27T07:29:30.687Z,604
2017-09-27T07:30:39.522Z,748
2017-09-27T07:31:48.356Z,620
2017-09-27T07:32:57.191Z,712
2017-09-27T07:34:06.028Z,724
2017-09-27T07:35:14.857Z,716
2017-09-27T07:36:23.695Z,692
2017-09-27T07:37:32.529Z,828
2017-09-27T07:38:41.362Z,804
2017-09-27T07:39:50.198Z,964
2017-09-27T07:40:59.032Z,852
2017-09-27T07:42:07.867Z,868
2017-09-27T07:43:16.700Z,1048
2017-09-27T07:44:25.539Z,1184
2017-09-27T07:45:34.373Z,1176
2017-09-27T07:46:43.205Z,1088
2017-09-27T07:47:52.044Z,1092
2017-09-27T07:49:00.882Z,1276
2017-09-27T07:50:09.722Z,1212
2017-09-27T07:51:18.553Z,956
2017-09-27T07:52:27.390Z,1296
2017-09-27T07:53:36.548Z,1336
2017-09-27T07:54:45.381Z,828
2017-09-27T07:55:54.214Z,944
2017-09-27T07:57:03.049Z,828
2017-09-27T07:58:11.885Z,912
2017-09-27T07:59:20.713Z,1232
2017-09-27T08:00:29.875Z,872
2017-09-27T08:01:38.708Z,972
2017-09-27T08:02:47.545Z,900
2017-09-27T08:03:56.375Z,852
2017-09-27T08:05:05.208Z,784
2017-09-27T08:06:14.043Z,956
2017-09-27T08:07:22.885Z,864
2017-09-27T08:08:31.724Z,812
2017-09-27T08:09:40.557Z,848
2017-09-27T08:10:49.393Z,828
2017-09-27T08:11:58.225Z,800
2017-09-27T08:13:07.062Z,884
2017-09-27T08:14:15.907Z,1036
2017-09-27T08:15:24.740Z,820
2017-09-27T08:16:33.575Z,948
2017-09-27T08:17:42.410Z,820
2017-09-27T08:18:51.248Z,916
2017-09-27T08:20:00.081Z,940
2017-09-27T08:21:08.916Z,980
2017-09-27T08:22:17.753Z,996
2017-09-27T08:23:26.586Z,1036
2017-09-27T08:24:35.420Z,932
2017-09-27T08:25:44.252Z,804
2017-09-27T08:26:53.415Z,832
2017-09-27T08:28:02.248Z,820
2017-09-27T08:29:11.411Z,1076
2017-09-27T08:30:20.240Z,1176
2017-09-27T08:31:29.076Z,1552
2017-09-27T08:32:37.907Z,1452
2017-09-27T08:33:46.744Z,1184
2017-09-27T08:34:55.581Z,1084
2017-09-27T08:36:04.419Z,1192
2017-09-27T08:37:13.251Z,920
2017-09-27T08:38:22.085Z,1164
2017-09-27T08:39:30.923Z,1204
2017-09-27T08:40:39.757Z,1032
2017-09-27T08:41:48.917Z,800
2017-09-27T08:42:57.756Z,840
2017-09-27T08:44:06.590Z,960
2017-09-27T08:45:15.426Z,1108
2017-09-27T08:46:24.263Z,1196
2017-09-27T08:47:33.423Z,1196
2017-09-27T08:48:42.592Z,1032
2017-09-27T08:49:51.432Z,1300
2017-09-27T08:51:00.598Z,1152
2017-09-27T08:52:09.437Z,2004
2017-09-27T08:53:18.274Z,1940
2017-09-27T08:54:27.108Z,1424
2017-09-27T08:55:35.948Z,2100
2017-09-27T08:56:45.117Z,1392
2017-09-27T08:57:53.954Z,1368
2017-09-27T08:59:02.782Z,2076
2017-09-27T09:00:11.618Z,1568
2017-09-27T09:01:20.778Z,2164
2017-09-27T09:02:29.619Z,1684
2017-09-27T09:03:38.456Z,1188
2017-09-27T09:04:47.289Z,1204
2017-09-27T09:05:56.116Z,1412
2017-09-27T09:07:04.948Z,1544
2017-09-27T09:08:13.788Z,1744
2017-09-27T09:09:22.623Z,1776
2017-09-27T09:10:31.463Z,1452
2017-09-27T09:11:40.299Z,1836
2017-09-27T09:12:49.129Z,1764
2017-09-27T09:13:57.971Z,1684
2017-09-27T09:15:07.131Z,1516
2017-09-27T09:16:15.966Z,1888
2017-09-27T09:17:24.799Z,2148
2017-09-27T09:18:33.630Z,1776
2017-09-27T09:19:42.466Z,1688
2017-09-27T09:20:51.305Z,1508
2017-09-27T09:22:00.146Z,1568
2017-09-27T09:23:08.974Z,1488
2017-09-27T09:24:17.811Z,1556
2017-09-27T09:25:26.651Z,1816
2017-09-27T09:26:35.480Z,2076
2017-09-27T09:27:44.314Z,2616
2017-09-27T09:28:53.145Z,2060
2017-09-27T09:30:01.983Z,2164
2017-09-27T09:31:10.819Z,2232
2017-09-27T09:32:19.655Z,2076
2017-09-27T09:33:28.492Z,2124
2017-09-27T09:34:37.324Z,2144
2017-09-27T09:35:46.160Z,1892
2017-09-27T09:36:55.002Z,1836
2017-09-27T09:38:03.834Z,2080
2017-09-27T09:39:12.670Z,2172
2017-09-27T09:40:21.507Z,2044
2017-09-27T09:41:30.344Z,2144
2017-09-27T09:42:39.176Z,1916
2017-09-27T09:43:48.015Z,1944
2017-09-27T09:44:56.852Z,1920
2017-09-27T09:46:05.685Z,1788
2017-09-27T09:47:14.527Z,2176
2017-09-27T09:48:23.360Z,2036
2017-09-27T09:49:32.204Z,1780
2017-09-27T09:50:41.043Z,1792
2017-09-27T09:51:49.877Z,1608
2017-09-27T09:52:58.713Z,1584
2017-09-27T09:54:07.557Z,1948
2017-09-27T09:55:16.397Z,1608
2017-09-27T09:56:25.225Z,1508
2017-09-27T09:57:34.064Z,1844
2017-09-27T09:58:42.902Z,1596
2017-09-27T09:59:51.739Z,1548
2017-09-27T10:01:00.574Z,1620
2017-09-27T10:02:09.407Z,1636
2017-09-27T10:03:18.242Z,2228
2017-09-27T10:04:27.078Z,1684
2017-09-27T10:05:36.246Z,1900
2017-09-27T10:06:45.076Z,2124
2017-09-27T10:07:53.915Z,1872
2017-09-27T10:09:02.744Z,1888
2017-09-27T10:10:11.582Z,1700
2017-09-27T10:11:20.417Z,1988
2017-09-27T10:12:29.258Z,2640
2017-09-27T10:13:38.095Z,2064
2017-09-27T10:14:46.929Z,1932
2017-09-27T10:15:56.087Z,1824
2017-09-27T10:17:04.924Z,1908
2017-09-27T10:18:13.761Z,2100
2017-09-27T10:19:22.600Z,2268
2017-09-27T10:20:31.760Z,2056
2017-09-27T10:21:40.598Z,2280
2017-09-27T10:22:49.431Z,1728
2017-09-27T10:23:58.269Z,1908
2017-09-27T10:25:07.432Z,1680
2017-09-27T10:26:16.273Z,1456
2017-09-27T10:27:25.425Z,1696
2017-09-27T10:28:34.256Z,1720
2017-09-27T10:29:43.093Z,2188
2017-09-27T10:30:51.929Z,2124
2017-09-27T10:32:00.767Z,2216
2017-09-27T10:33:09.605Z,1888
2017-09-27T10:34:18.437Z,2240
2017-09-27T10:35:27.269Z,2004
2017-09-27T10:36:36.109Z,1692
2017-09-27T10:37:44.941Z,1396
2017-09-27T10:38:53.782Z,1900
2017-09-27T10:40:02.617Z,1932
2017-09-27T10:41:11.450Z,2584
2017-09-27T10:42:20.289Z,2240
2017-09-27T10:43:29.128Z,2028
2017-09-27T10:44:37.964Z,2204
2017-09-27T10:45:46.805Z,1788
2017-09-27T10:46:55.995Z,1748
2017-09-27T10:48:04.829Z,1388
2017-09-27T10:49:13.666Z,1316
2017-09-27T10:50:22.509Z,1424
2017-09-27T10:51:31.340Z,1480
2017-09-27T10:52:40.178Z,1364
2017-09-27T10:53:49.012Z,1556
2017-09-27T10:54:57.856Z,1732
2017-09-27T10:56:06.682Z,1572
2017-09-27T10:57:15.515Z,1600
2017-09-27T10:58:24.349Z,1500
2017-09-27T10:59:33.185Z,1668
2017-09-27T11:00:42.041Z,1200
2017-09-27T11:01:51.216Z,1328
2017-09-27T11:03:00.713Z,1224
2017-09-27T11:04:09.547Z,1536
2017-09-27T11:05:18.385Z,2420
2017-09-27T11:06:27.547Z,2552
2017-09-27T11:07:36.744Z,2204
2017-09-27T11:08:46.625Z,1704
2017-09-27T11:09:56.886Z,1568
2017-09-27T11:11:06.407Z,1856
2017-09-27T11:12:16.250Z,2108
2017-09-27T11:13:25.407Z,1880
2017-09-27T11:14:34.244Z,2036
2017-09-27T11:15:43.081Z,2024
2017-09-27T11:16:51.914Z,1736
2017-09-27T11:18:00.751Z,1600
2017-09-27T11:19:09.594Z,1492
2017-09-27T11:20:18.429Z,1580
2017-09-27T11:21:27.268Z,1552
2017-09-27T11:22:36.100Z,1636
2017-09-27T11:23:44.936Z,1428
2017-09-27T11:24:53.780Z,1272
2017-09-27T11:26:02.608Z,1620
2017-09-27T11:27:11.445Z,1572
2017-09-27T11:28:20.278Z,1428
2017-09-27T11:29:29.120Z,1652
2017-09-27T11:30:37.960Z,1492
2017-09-27T11:31:46.795Z,1688
2017-09-27T11:32:55.630Z,1696
2017-09-27T11:34:04.467Z,1852
2017-09-27T11:35:13.303Z,1780
2017-09-27T11:36:22.139Z,1788
2017-09-27T11:37:30.978Z,1936
2017-09-27T11:38:39.808Z,2292
2017-09-27T11:39:48.641Z,2244
2017-09-27T11:40:57.483Z,2564
2017-09-27T11:42:06.318Z,2292
2017-09-27T11:43:15.156Z,2176
2017-09-27T11:44:23.996Z,2400
2017-09-27T11:45:32.832Z,2132
2017-09-27T11:46:41.669Z,2112
2017-09-27T11:47:50.507Z,2156
2017-09-27T11:48:59.345Z,2124
2017-09-27T11:50:08.184Z,1804
2017-09-27T11:51:17.020Z,1784
2017-09-27T11:52:25.859Z,2096
2017-09-27T11:53:34.698Z,1672
2017-09-27T11:54:43.538Z,1876
2017-09-27T11:55:52.377Z,2424
2017-09-27T11:57:01.272Z,1840
2017-09-27T11:58:10.053Z,1948
2017-09-27T11:59:18.896Z,1908
2017-09-27T12:00:27.736Z,1380
2017-09-27T12:01:36.572Z,1264
2017-09-27T12:02:45.410Z,1616
2017-09-27T12:03:54.248Z,1556
2017-09-27T12:05:03.087Z,1376
2017-09-27T12:06:11.921Z,1256
2017-09-27T12:07:20.756Z,1160
2017-09-27T12:08:29.593Z,1484
2017-09-27T12:09:38.434Z,1452
2017-09-27T12:10:47.275Z,1168
2017-09-27T12:11:56.112Z,1168
2017-09-27T12:13:04.953Z,1548
2017-09-27T12:14:13.787Z,1664
2017-09-27T12:15:22.627Z,1732
2017-09-27T12:16:31.465Z,1892
2017-09-27T12:17:40.303Z,1576
2017-09-27T12:18:49.138Z,1624
2017-09-27T12:19:57.978Z,1400
2017-09-27T12:21:06.812Z,1732
2017-09-27T12:22:15.649Z,1916
2017-09-27T12:23:24.816Z,1752
2017-09-27T12:24:33.656Z,1440
2017-09-27T12:25:42.496Z,1548
2017-09-27T12:26:51.359Z,1488
2017-09-27T12:28:00.167Z,1460
2017-09-27T12:29:09.005Z,1520
2017-09-27T12:30:17.853Z,1516
2017-09-27T12:31:26.689Z,1360
2017-09-27T12:32:35.530Z,1408
2017-09-27T12:33:44.365Z,1240
2017-09-27T12:34:53.207Z,1228
2017-09-27T12:36:02.051Z,1236
2017-09-27T12:37:11.225Z,1188
2017-09-27T12:38:20.061Z,1048
2017-09-27T12:39:28.896Z,968
2017-09-27T12:40:37.736Z,1020
2017-09-27T12:41:46.577Z,1052
2017-09-27T12:42:55.412Z,1084
2017-09-27T12:44:04.254Z,972
2017-09-27T12:45:13.091Z,1012
2017-09-27T12:46:21.928Z,1032
2017-09-27T12:47:30.767Z,1116
2017-09-27T12:48:39.922Z,1132
2017-09-27T12:49:48.761Z,1296
2017-09-27T12:50:57.599Z,996
2017-09-27T12:52:06.434Z,1072
2017-09-27T12:53:15.268Z,1180
2017-09-27T12:54:24.110Z,1356
2017-09-27T12:55:32.950Z,1356
2017-09-27T12:56:41.785Z,1336
2017-09-27T12:57:50.621Z,1476
2017-09-27T12:58:59.455Z,1288
2017-09-27T13:00:08.294Z,1356
2017-09-27T13:01:17.465Z,1384
2017-09-27T13:02:26.307Z,1160
2017-09-27T13:03:35.146Z,1244
2017-09-27T13:04:43.984Z,1328
2017-09-27T13:05:52.822Z,1324
2017-09-27T13:07:01.655Z,964
2017-09-27T13:08:10.500Z,768
2017-09-27T13:09:19.337Z,664
2017-09-27T13:10:28.175Z,652
2017-09-27T13:11:37.014Z,680
2017-09-27T13:12:45.857Z,792
2017-09-27T13:13:54.690Z,840
2017-09-27T13:15:03.529Z,1036
2017-09-27T13:16:12.367Z,1016
2017-09-27T13:17:21.198Z,1008
2017-09-27T13:18:30.038Z,936
2017-09-27T13:19:38.875Z,960
2017-09-27T13:20:47.715Z,1044
2017-09-27T13:21:56.552Z,1032
2017-09-27T13:23:05.392Z,944
2017-09-27T13:24:14.228Z,1072
2017-09-27T13:25:23.065Z,1020
2017-09-27T13:26:31.904Z,1076
2017-09-27T13:27:40.749Z,1000
2017-09-27T13:28:49.906Z,856
2017-09-27T13:29:58.745Z,792
2017-09-27T13:31:07.578Z,820
2017-09-27T13:32:16.420Z,896
2017-09-27T13:33:25.254Z,992
2017-09-27T13:34:34.099Z,1080
2017-09-27T13:35:42.935Z,1124
2017-09-27T13:36:51.772Z,1084
2017-09-27T13:38:00.613Z,1032
2017-09-27T13:39:09.453Z,1020
2017-09-27T13:40:18.292Z,972
2017-09-27T13:41:27.457Z,960
2017-09-27T13:42:36.289Z,996
2017-09-27T13:43:45.129Z,1052
2017-09-27T13:44:53.970Z,1016
2017-09-27T13:46:02.814Z,1108
2017-09-27T13:47:11.679Z,976
2017-09-27T13:48:20.840Z,860
2017-09-27T13:49:29.673Z,812
2017-09-27T13:50:38.509Z,888
2017-09-27T13:51:47.350Z,852
2017-09-27T13:52:56.189Z,848
2017-09-27T13:54:05.026Z,852
2017-09-27T13:55:13.865Z,796
2017-09-27T13:56:22.702Z,872
2017-09-27T13:57:31.540Z,868
2017-09-27T13:58:40.376Z,848
2017-09-27T13:59:49.216Z,892
2017-09-27T14:00:58.053Z,844
2017-09-27T14:02:06.892Z,860
2017-09-27T14:03:15.730Z,860
2017-09-27T14:04:24.569Z,836
2017-09-27T14:05:33.410Z,820
2017-09-27T14:06:42.276Z,856
2017-09-27T14:07:51.088Z,852
2017-09-27T14:08:59.922Z,808
2017-09-27T14:10:08.763Z,764
2017-09-27T14:11:17.601Z,736
2017-09-27T14:12:26.435Z,668
2017-09-27T14:13:35.284Z,664
2017-09-27T14:14:44.109Z,688
2017-09-27T14:15:52.952Z,660
2017-09-27T14:17:01.784Z,628
2017-09-27T14:18:10.622Z,656
2017-09-27T14:19:19.456Z,692
2017-09-27T14:20:28.296Z,728
2017-09-27T14:21:37.135Z,724
2017-09-27T14:22:45.977Z,760
2017-09-27T14:23:54.812Z,752
2017-09-27T14:25:03.655Z,800
2017-09-27T14:26:12.515Z,848
2017-09-27T14:27:21.330Z,892
2017-09-27T14:28:30.166Z,880
2017-09-27T14:29:39.007Z,960
2017-09-27T14:30:47.846Z,980
2017-09-27T14:31:56.693Z,984
2017-09-27T14:33:05.850Z,1060
2017-09-27T14:34:14.689Z,1092
2017-09-27T14:35:23.531Z,1128
2017-09-27T14:36:32.361Z,1128
2017-09-27T14:37:41.199Z,1088
2017-09-27T14:38:50.037Z,1000
2017-09-27T14:39:58.878Z,1020
2017-09-27T14:41:07.715Z,1024
2017-09-27T14:42:16.918Z,1032
2017-09-27T14:43:25.754Z,1068
2017-09-27T14:44:34.588Z,1060
2017-09-27T14:45:43.429Z,1036
2017-09-27T14:46:52.264Z,1004
2017-09-27T14:48:01.106Z,976
2017-09-27T14:49:09.944Z,916
2017-09-27T14:50:18.782Z,868
2017-09-27T14:51:27.625Z,856
2017-09-27T14:52:36.467Z,860
2017-09-27T14:53:45.302Z,856
2017-09-27T14:54:54.141Z,840
2017-09-27T14:56:02.976Z,820
2017-09-27T14:57:11.812Z,824
2017-09-27T14:58:20.653Z,792
2017-09-27T14:59:29.496Z,784
2017-09-27T15:00:38.335Z,800
2017-09-27T15:01:47.176Z,796
2017-09-27T15:02:56.011Z,768
2017-09-27T15:04:04.847Z,772
2017-09-27T15:05:13.686Z,748
2017-09-27T15:06:22.852Z,732
2017-09-27T15:07:31.688Z,688
2017-09-27T15:08:40.855Z,712
2017-09-27T15:09:49.697Z,732
2017-09-27T15:10:58.535Z,680
2017-09-27T15:12:07.372Z,636
2017-09-27T15:13:16.216Z,628
2017-09-27T15:14:25.098Z,644
2017-09-27T15:15:33.941Z,648
2017-09-27T15:16:42.774Z,640
2017-09-27T15:17:51.619Z,612
2017-09-27T15:19:00.459Z,584
2017-09-27T15:20:09.291Z,544
2017-09-27T15:21:18.135Z,508
2017-09-27T15:22:26.977Z,484
2017-09-27T15:23:36.144Z,472
2017-09-27T15:24:44.982Z,464
2017-09-27T15:25:53.821Z,468
2017-09-27T15:27:02.658Z,484
2017-09-27T15:28:11.499Z,500
2017-09-27T15:29:20.341Z,516
2017-09-27T15:30:29.498Z,516
2017-09-27T15:31:38.662Z,520
2017-09-27T15:32:47.508Z,492
2017-09-27T15:33:56.338Z,476
2017-09-27T15:35:05.178Z,464
2017-09-27T15:36:14.013Z,448
2017-09-27T15:37:22.855Z,428
2017-09-27T15:38:31.691Z,392
2017-09-27T15:39:40.532Z,364
2017-09-27T15:40:49.367Z,360
2017-09-27T15:41:58.209Z,352
2017-09-27T15:43:07.042Z,332
2017-09-27T15:44:15.885Z,324
2017-09-27T15:45:25.056Z,316
2017-09-27T15:46:33.893Z,308
2017-09-27T15:47:42.733Z,288
2017-09-27T15:48:51.574Z,272
2017-09-27T15:50:00.411Z,260
2017-09-27T15:51:09.254Z,260
2017-09-27T15:52:18.090Z,272
2017-09-27T15:53:26.932Z,280
2017-09-27T15:54:35.765Z,272
2017-09-27T15:55:44.603Z,276
2017-09-27T15:56:53.443Z,260
2017-09-27T15:58:02.283Z,264
2017-09-27T15:59:11.121Z,264